Harbor Princess — WCX8036 — position and weather

sailwx.info

Track history (hours):
 
Tides and Currents Weather Stations Pressure Air Temp Water Temp Dewpoint Dewpoint Depression Visibility Wind Speed Wind Dir Waves Ship Positions

Harbor Princess

Owner: Golden Gate Scenic Steamship Corp, SAN FRANCISCO, CA. More information available from US FCC via Universal Licensing System and Coast Guard Vessel Documentation Center.

Last reported at 2018-Jan-19 00:00 UTC. Time now 2018-Jan-19 00:04 UTC.
Position N 37°49' W 122°25'.

Length 25 m; draft 2.8 m.

Type: Passenger vessel. MMSI: 366975750.

Date/timePositionNaut miles runAvg speedWind from/ knotsBaromVisibWave heightAir tempDewpointWater temp
2018-Jan-19 00:00N 37°49' W 122°25'2 4.1
2018-Jan-18 23:31N 37°49' W 122°27'2 4.1
2018-Jan-18 23:01N 37°49' W 122°25'1 1.2
2018-Jan-18 22:31N 37°49' W 122°24'3 6.7
2018-Jan-18 22:00N 37°49' W 122°29'3 6.1
2018-Jan-18 21:31N 37°49' W 122°25'2 3.5
2018-Jan-18 21:01N 37°48' W 122°23'4 7.9
2018-Jan-18 20:30N 37°49' W 122°28'2 4.6
2018-Jan-18 20:01N 37°49' W 122°25'0 0.1
2018-Jan-18 19:30N 37°49' W 122°25'0 0.4
2018-Jan-18 19:00N 37°49' W 122°25'0 0.4
2018-Jan-18 18:30N 37°49' W 122°25'0 0.0
2018-Jan-18 00:28N 37°49' W 122°25'0 0.6
2018-Jan-18 00:00N 37°49' W 122°25'0 0.0
2018-Jan-17 23:56N 37°49' W 122°25'  
2018-Jan-12 01:55N 37°49' W 122°25'1 2.6
2018-Jan-12 01:31N 37°48' W 122°24'1 1.6
2018-Jan-12 01:00N 37°49' W 122°24'2 4.6
2018-Jan-12 00:30N 37°49' W 122°27'2 3.7
2018-Jan-12 00:00N 37°49' W 122°25'2 4.0
2018-Jan-11 23:30N 37°50' W 122°27'2 4.0
2018-Jan-11 23:00N 37°49' W 122°25'1 1.4
2018-Jan-11 22:30N 37°49' W 122°24'3 6.7
2018-Jan-11 22:00N 37°49' W 122°29'3 6.1
2018-Jan-11 21:30N 37°49' W 122°25'1 2.4
2018-Jan-11 21:00N 37°48' W 122°23'4 7.0
2018-Jan-11 20:30N 37°49' W 122°28'2 4.8
2018-Jan-11 20:00N 37°49' W 122°25'0 0.2
2018-Jan-11 19:30N 37°49' W 122°25'3 5.5
2018-Jan-11 19:00N 37°49' W 122°28'3 5.5
2018-Jan-11 18:30N 37°49' W 122°25'0 0.5
2018-Jan-11 18:00N 37°49' W 122°25'0 0.0
2018-Jan-10 23:34N 37°49' W 122°25'0 0.0
2018-Jan-10 23:30N 37°49' W 122°25'0 0.5
2018-Jan-10 23:00N 37°49' W 122°25'0 0.4
2018-Jan-10 22:30N 37°49' W 122°25'0 0.4
2018-Jan-10 22:01N 37°49' W 122°25'1 2.0
2018-Jan-10 21:30N 37°48' W 122°24'2 4.2
2018-Jan-10 21:00N 37°50' W 122°25'2 3.0
2018-Jan-10 20:30N 37°49' W 122°27'1 2.7
2018-Jan-10 20:00N 37°49' W 122°25'0 0.0
2018-Jan-09 23:29N 37°49' W 122°25'0 0.6
2018-Jan-09 23:00N 37°49' W 122°25'0 0.8
2018-Jan-09 22:30N 37°49' W 122°25'3 6.0
2018-Jan-09 22:01N 37°49' W 122°28'3 5.4
2018-Jan-09 21:30N 37°49' W 122°25'2 3.4
2018-Jan-09 21:01N 37°48' W 122°23'4 7.4
2018-Jan-09 20:30N 37°49' W 122°27'2 4.1
2018-Jan-09 20:01N 37°49' W 122°25'0 0.0
2018-Jan-09 19:31N 37°49' W 122°25'1 1.1
2018-Jan-09 19:00N 37°49' W 122°26'0 0.8
2018-Jan-09 18:30N 37°49' W 122°25'  
Track history (hours):
 
Tides and Currents Weather Stations Pressure Air Temp Water Temp Dewpoint Dewpoint Depression Visibility Wind Speed Wind Dir Waves Ship Positions

Harbor Princess

Owner: Golden Gate Scenic Steamship Corp, SAN FRANCISCO, CA. More information available from US FCC via Universal Licensing System and Coast Guard Vessel Documentation Center.

Last reported at 2018-Jan-19 00:00 UTC. Time now 2018-Jan-19 00:04 UTC.
Position N 37°49' W 122°25'.

Length 25 m; draft 2.8 m.

Type: Passenger vessel. MMSI: 366975750.

Date/timePositionNaut miles runAvg speedWind from/ knotsBaromVisibWave heightAir tempDewpointWater temp
2018-Jan-19 00:00N 37°49' W 122°25'2 4.1
2018-Jan-18 23:31N 37°49' W 122°27'2 4.1
2018-Jan-18 23:01N 37°49' W 122°25'1 1.2
2018-Jan-18 22:31N 37°49' W 122°24'3 6.7
2018-Jan-18 22:00N 37°49' W 122°29'3 6.1
2018-Jan-18 21:31N 37°49' W 122°25'2 3.5
2018-Jan-18 21:01N 37°48' W 122°23'4 7.9
2018-Jan-18 20:30N 37°49' W 122°28'2 4.6
2018-Jan-18 20:01N 37°49' W 122°25'0 0.1
2018-Jan-18 19:30N 37°49' W 122°25'0 0.4
2018-Jan-18 19:00N 37°49' W 122°25'0 0.4
2018-Jan-18 18:30N 37°49' W 122°25'0 0.0
2018-Jan-18 00:28N 37°49' W 122°25'0 0.6
2018-Jan-18 00:00N 37°49' W 122°25'0 0.0
2018-Jan-17 23:56N 37°49' W 122°25'  
2018-Jan-12 01:55N 37°49' W 122°25'1 2.6
2018-Jan-12 01:31N 37°48' W 122°24'1 1.6
2018-Jan-12 01:00N 37°49' W 122°24'2 4.6
2018-Jan-12 00:30N 37°49' W 122°27'2 3.7
2018-Jan-12 00:00N 37°49' W 122°25'2 4.0
2018-Jan-11 23:30N 37°50' W 122°27'2 4.0
2018-Jan-11 23:00N 37°49' W 122°25'1 1.4
2018-Jan-11 22:30N 37°49' W 122°24'3 6.7
2018-Jan-11 22:00N 37°49' W 122°29'3 6.1
2018-Jan-11 21:30N 37°49' W 122°25'1 2.4
2018-Jan-11 21:00N 37°48' W 122°23'4 7.0
2018-Jan-11 20:30N 37°49' W 122°28'2 4.8
2018-Jan-11 20:00N 37°49' W 122°25'0 0.2
2018-Jan-11 19:30N 37°49' W 122°25'3 5.5
2018-Jan-11 19:00N 37°49' W 122°28'3 5.5
2018-Jan-11 18:30N 37°49' W 122°25'0 0.5
2018-Jan-11 18:00N 37°49' W 122°25'0 0.0
2018-Jan-10 23:34N 37°49' W 122°25'0 0.0
2018-Jan-10 23:30N 37°49' W 122°25'0 0.5
2018-Jan-10 23:00N 37°49' W 122°25'0 0.4
2018-Jan-10 22:30N 37°49' W 122°25'0 0.4
2018-Jan-10 22:01N 37°49' W 122°25'1 2.0
2018-Jan-10 21:30N 37°48' W 122°24'2 4.2
2018-Jan-10 21:00N 37°50' W 122°25'2 3.0
2018-Jan-10 20:30N 37°49' W 122°27'1 2.7
2018-Jan-10 20:00N 37°49' W 122°25'0 0.0
2018-Jan-09 23:29N 37°49' W 122°25'0 0.6
2018-Jan-09 23:00N 37°49' W 122°25'0 0.8
2018-Jan-09 22:30N 37°49' W 122°25'3 6.0
2018-Jan-09 22:01N 37°49' W 122°28'3 5.4
2018-Jan-09 21:30N 37°49' W 122°25'2 3.4
2018-Jan-09 21:01N 37°48' W 122°23'4 7.4
2018-Jan-09 20:30N 37°49' W 122°27'2 4.1
2018-Jan-09 20:01N 37°49' W 122°25'0 0.0
2018-Jan-09 19:31N 37°49' W 122°25'1 1.1
2018-Jan-09 19:00N 37°49' W 122°26'0 0.8
2018-Jan-09 18:30N 37°49' W 122°25'  

Dump ship's entire track history